sensor_id;sensor_type;location;lat;lon;timestamp;P1;durP1;ratioP1;P2;durP2;ratioP2
13408;SDS011;6775;49.574;11.170;2022-07-29T00:01:41;1.67;;;1.23;;
13408;SDS011;6775;49.574;11.170;2022-07-29T00:04:09;1.40;;;1.30;;
13408;SDS011;6775;49.574;11.170;2022-07-29T00:06:38;1.10;;;1.00;;
13408;SDS011;6775;49.574;11.170;2022-07-29T00:09:07;1.40;;;1.30;;
13408;SDS011;6775;49.574;11.170;2022-07-29T00:11:35;1.87;;;1.27;;
13408;SDS011;6775;49.574;11.170;2022-07-29T00:14:07;1.33;;;1.23;;
13408;SDS011;6775;49.574;11.170;2022-07-29T00:16:36;1.30;;;1.20;;
13408;SDS011;6775;49.574;11.170;2022-07-29T00:19:06;2.57;;;1.40;;
13408;SDS011;6775;49.574;11.170;2022-07-29T00:21:34;2.03;;;1.33;;
13408;SDS011;6775;49.574;11.170;2022-07-29T00:24:02;1.37;;;1.27;;
13408;SDS011;6775;49.574;11.170;2022-07-29T00:26:30;1.43;;;1.20;;
13408;SDS011;6775;49.574;11.170;2022-07-29T00:28:58;2.73;;;1.50;;
13408;SDS011;6775;49.574;11.170;2022-07-29T00:31:47;2.17;;;1.43;;
13408;SDS011;6775;49.574;11.170;2022-07-29T00:34:16;1.30;;;1.20;;
13408;SDS011;6775;49.574;11.170;2022-07-29T00:36:58;2.43;;;1.23;;
13408;SDS011;6775;49.574;11.170;2022-07-29T00:39:26;1.40;;;1.30;;
13408;SDS011;6775;49.574;11.170;2022-07-29T00:41:54;2.13;;;1.30;;
13408;SDS011;6775;49.574;11.170;2022-07-29T00:44:22;1.47;;;1.30;;
13408;SDS011;6775;49.574;11.170;2022-07-29T00:46:50;2.50;;;1.60;;
13408;SDS011;6775;49.574;11.170;2022-07-29T00:49:19;2.13;;;1.67;;
13408;SDS011;6775;49.574;11.170;2022-07-29T00:51:47;2.17;;;1.50;;
13408;SDS011;6775;49.574;11.170;2022-07-29T00:54:16;1.67;;;1.30;;
13408;SDS011;6775;49.574;11.170;2022-07-29T00:56:45;3.43;;;1.37;;
13408;SDS011;6775;49.574;11.170;2022-07-29T00:59:13;2.20;;;1.20;;
13408;SDS011;6775;49.574;11.170;2022-07-29T01:01:40;1.50;;;1.40;;
13408;SDS011;6775;49.574;11.170;2022-07-29T01:04:08;1.77;;;1.40;;
13408;SDS011;6775;49.574;11.170;2022-07-29T01:06:37;1.27;;;1.17;;
13408;SDS011;6775;49.574;11.170;2022-07-29T01:09:05;1.50;;;1.40;;
13408;SDS011;6775;49.574;11.170;2022-07-29T01:11:34;1.83;;;1.40;;
13408;SDS011;6775;49.574;11.170;2022-07-29T01:14:03;2.60;;;1.53;;
13408;SDS011;6775;49.574;11.170;2022-07-29T01:16:35;2.00;;;1.40;;
13408;SDS011;6775;49.574;11.170;2022-07-29T01:19:09;1.33;;;1.23;;
13408;SDS011;6775;49.574;11.170;2022-07-29T01:21:51;2.23;;;1.40;;
13408;SDS011;6775;49.574;11.170;2022-07-29T01:27:31;1.80;;;1.60;;
13408;SDS011;6775;49.574;11.170;2022-07-29T01:30:09;1.40;;;1.30;;
13408;SDS011;6775;49.574;11.170;2022-07-29T01:32:40;1.57;;;1.20;;
13408;SDS011;6775;49.574;11.170;2022-07-29T01:35:15;1.67;;;1.40;;
13408;SDS011;6775;49.574;11.170;2022-07-29T01:37:47;1.50;;;1.40;;
13408;SDS011;6775;49.574;11.170;2022-07-29T01:40:19;3.70;;;1.80;;
13408;SDS011;6775;49.574;11.170;2022-07-29T01:42:51;1.40;;;1.30;;
13408;SDS011;6775;49.574;11.170;2022-07-29T01:45:25;1.80;;;1.50;;
13408;SDS011;6775;49.574;11.170;2022-07-29T01:47:58;1.60;;;1.50;;
13408;SDS011;6775;49.574;11.170;2022-07-29T01:50:31;1.40;;;1.30;;
13408;SDS011;6775;49.574;11.170;2022-07-29T01:53:01;1.40;;;1.30;;
13408;SDS011;6775;49.574;11.170;2022-07-29T01:55:32;1.40;;;1.30;;
13408;SDS011;6775;49.574;11.170;2022-07-29T01:58:04;1.30;;;1.20;;
13408;SDS011;6775;49.574;11.170;2022-07-29T02:00:34;1.30;;;1.20;;
13408;SDS011;6775;49.574;11.170;2022-07-29T02:03:09;2.60;;;1.30;;
13408;SDS011;6775;49.574;11.170;2022-07-29T02:05:39;1.80;;;1.43;;
13408;SDS011;6775;49.574;11.170;2022-07-29T02:08:09;2.00;;;1.60;;
13408;SDS011;6775;49.574;11.170;2022-07-29T02:10:39;1.43;;;1.33;;
13408;SDS011;6775;49.574;11.170;2022-07-29T02:13:09;1.40;;;1.30;;
13408;SDS011;6775;49.574;11.170;2022-07-29T02:15:41;1.87;;;1.30;;
13408;SDS011;6775;49.574;11.170;2022-07-29T02:18:11;1.73;;;1.40;;
13408;SDS011;6775;49.574;11.170;2022-07-29T02:20:43;1.50;;;1.10;;
13408;SDS011;6775;49.574;11.170;2022-07-29T02:23:15;1.50;;;1.30;;
13408;SDS011;6775;49.574;11.170;2022-07-29T02:25:46;2.00;;;1.20;;
13408;SDS011;6775;49.574;11.170;2022-07-29T02:28:17;1.60;;;1.30;;
13408;SDS011;6775;49.574;11.170;2022-07-29T02:30:47;1.83;;;1.53;;
13408;SDS011;6775;49.574;11.170;2022-07-29T02:33:18;3.20;;;1.50;;
13408;SDS011;6775;49.574;11.170;2022-07-29T02:39:54;1.50;;;1.40;;
13408;SDS011;6775;49.574;11.170;2022-07-29T02:42:24;1.40;;;1.30;;
13408;SDS011;6775;49.574;11.170;2022-07-29T02:44:55;1.50;;;1.40;;
13408;SDS011;6775;49.574;11.170;2022-07-29T02:47:27;2.00;;;1.10;;
13408;SDS011;6775;49.574;11.170;2022-07-29T02:50:09;2.20;;;1.40;;
13408;SDS011;6775;49.574;11.170;2022-07-29T02:52:41;1.37;;;1.27;;
13408;SDS011;6775;49.574;11.170;2022-07-29T02:55:14;1.60;;;1.50;;
13408;SDS011;6775;49.574;11.170;2022-07-29T02:57:46;1.77;;;1.30;;
13408;SDS011;6775;49.574;11.170;2022-07-29T03:00:21;1.60;;;1.33;;
13408;SDS011;6775;49.574;11.170;2022-07-29T03:02:52;1.77;;;1.37;;
13408;SDS011;6775;49.574;11.170;2022-07-29T03:05:22;1.40;;;1.30;;
13408;SDS011;6775;49.574;11.170;2022-07-29T03:07:52;1.60;;;1.50;;
13408;SDS011;6775;49.574;11.170;2022-07-29T03:10:22;1.50;;;1.33;;
13408;SDS011;6775;49.574;11.170;2022-07-29T03:12:52;1.67;;;1.40;;
13408;SDS011;6775;49.574;11.170;2022-07-29T03:15:21;1.63;;;1.40;;
13408;SDS011;6775;49.574;11.170;2022-07-29T03:17:51;1.40;;;1.30;;
13408;SDS011;6775;49.574;11.170;2022-07-29T03:20:20;1.60;;;1.50;;
13408;SDS011;6775;49.574;11.170;2022-07-29T03:22:48;1.90;;;1.70;;
13408;SDS011;6775;49.574;11.170;2022-07-29T03:25:16;1.60;;;1.50;;
13408;SDS011;6775;49.574;11.170;2022-07-29T03:27:46;1.63;;;1.43;;
13408;SDS011;6775;49.574;11.170;2022-07-29T03:30:14;1.60;;;1.50;;
13408;SDS011;6775;49.574;11.170;2022-07-29T03:32:47;1.87;;;1.50;;
13408;SDS011;6775;49.574;11.170;2022-07-29T03:35:18;2.63;;;1.60;;
13408;SDS011;6775;49.574;11.170;2022-07-29T03:37:46;1.50;;;1.40;;
13408;SDS011;6775;49.574;11.170;2022-07-29T03:40:16;1.87;;;1.53;;
13408;SDS011;6775;49.574;11.170;2022-07-29T03:42:49;1.50;;;1.40;;
13408;SDS011;6775;49.574;11.170;2022-07-29T03:45:20;1.30;;;1.20;;
13408;SDS011;6775;49.574;11.170;2022-07-29T03:47:50;1.63;;;1.27;;
13408;SDS011;6775;49.574;11.170;2022-07-29T03:50:27;1.50;;;1.40;;
13408;SDS011;6775;49.574;11.170;2022-07-29T03:52:57;1.67;;;1.40;;
13408;SDS011;6775;49.574;11.170;2022-07-29T03:55:26;2.60;;;1.50;;
13408;SDS011;6775;49.574;11.170;2022-07-29T03:57:56;3.30;;;1.50;;
13408;SDS011;6775;49.574;11.170;2022-07-29T04:00:25;2.50;;;1.90;;
13408;SDS011;6775;49.574;11.170;2022-07-29T04:02:53;1.70;;;1.60;;
13408;SDS011;6775;49.574;11.170;2022-07-29T04:05:21;1.67;;;1.30;;
13408;SDS011;6775;49.574;11.170;2022-07-29T04:07:51;1.40;;;1.30;;
13408;SDS011;6775;49.574;11.170;2022-07-29T04:10:18;1.50;;;1.40;;
13408;SDS011;6775;49.574;11.170;2022-07-29T04:12:56;2.27;;;1.40;;
13408;SDS011;6775;49.574;11.170;2022-07-29T04:15:24;1.40;;;1.30;;
13408;SDS011;6775;49.574;11.170;2022-07-29T04:17:57;2.27;;;1.40;;
13408;SDS011;6775;49.574;11.170;2022-07-29T04:20:25;1.70;;;1.60;;
13408;SDS011;6775;49.574;11.170;2022-07-29T04:22:54;1.60;;;1.50;;
13408;SDS011;6775;49.574;11.170;2022-07-29T04:25:22;2.23;;;1.60;;
13408;SDS011;6775;49.574;11.170;2022-07-29T04:27:50;1.60;;;1.50;;
13408;SDS011;6775;49.574;11.170;2022-07-29T04:30:27;1.60;;;1.50;;
13408;SDS011;6775;49.574;11.170;2022-07-29T04:32:55;1.67;;;1.47;;
13408;SDS011;6775;49.574;11.170;2022-07-29T04:35:23;2.43;;;1.77;;
13408;SDS011;6775;49.574;11.170;2022-07-29T04:37:51;1.83;;;1.50;;
13408;SDS011;6775;49.574;11.170;2022-07-29T04:40:20;2.67;;;1.43;;
13408;SDS011;6775;49.574;11.170;2022-07-29T04:42:49;2.27;;;1.70;;
13408;SDS011;6775;49.574;11.170;2022-07-29T04:45:16;1.93;;;1.50;;
13408;SDS011;6775;49.574;11.170;2022-07-29T04:47:48;2.50;;;1.70;;
13408;SDS011;6775;49.574;11.170;2022-07-29T04:50:15;2.87;;;1.60;;
13408;SDS011;6775;49.574;11.170;2022-07-29T04:52:43;1.57;;;1.40;;
13408;SDS011;6775;49.574;11.170;2022-07-29T04:55:11;2.03;;;1.67;;
13408;SDS011;6775;49.574;11.170;2022-07-29T04:57:40;1.77;;;1.60;;
13408;SDS011;6775;49.574;11.170;2022-07-29T05:00:09;2.70;;;1.80;;
13408;SDS011;6775;49.574;11.170;2022-07-29T05:02:37;2.67;;;1.67;;
13408;SDS011;6775;49.574;11.170;2022-07-29T05:05:05;1.50;;;1.40;;
13408;SDS011;6775;49.574;11.170;2022-07-29T05:07:33;2.57;;;1.50;;
13408;SDS011;6775;49.574;11.170;2022-07-29T05:10:02;1.50;;;1.40;;
13408;SDS011;6775;49.574;11.170;2022-07-29T05:12:30;4.03;;;1.70;;
13408;SDS011;6775;49.574;11.170;2022-07-29T05:15:00;1.53;;;1.37;;
13408;SDS011;6775;49.574;11.170;2022-07-29T05:17:27;2.00;;;1.60;;
13408;SDS011;6775;49.574;11.170;2022-07-29T05:19:55;2.17;;;1.53;;
13408;SDS011;6775;49.574;11.170;2022-07-29T05:22:23;1.90;;;1.70;;
13408;SDS011;6775;49.574;11.170;2022-07-29T05:24:51;2.03;;;1.70;;
13408;SDS011;6775;49.574;11.170;2022-07-29T05:27:19;1.40;;;1.30;;
13408;SDS011;6775;49.574;11.170;2022-07-29T05:29:46;2.43;;;1.77;;
13408;SDS011;6775;49.574;11.170;2022-07-29T05:32:16;2.30;;;1.60;;
13408;SDS011;6775;49.574;11.170;2022-07-29T05:34:44;2.10;;;1.50;;
13408;SDS011;6775;49.574;11.170;2022-07-29T05:37:16;1.67;;;1.53;;
13408;SDS011;6775;49.574;11.170;2022-07-29T05:39:45;1.97;;;1.50;;
13408;SDS011;6775;49.574;11.170;2022-07-29T05:42:22;1.57;;;1.47;;
13408;SDS011;6775;49.574;11.170;2022-07-29T05:44:50;2.10;;;1.90;;
13408;SDS011;6775;49.574;11.170;2022-07-29T05:47:19;2.07;;;1.30;;
13408;SDS011;6775;49.574;11.170;2022-07-29T05:49:47;2.10;;;1.60;;
13408;SDS011;6775;49.574;11.170;2022-07-29T05:52:15;2.13;;;1.50;;
13408;SDS011;6775;49.574;11.170;2022-07-29T05:54:43;2.60;;;1.40;;
13408;SDS011;6775;49.574;11.170;2022-07-29T05:57:14;1.67;;;1.50;;
13408;SDS011;6775;49.574;11.170;2022-07-29T05:59:42;3.80;;;1.80;;
13408;SDS011;6775;49.574;11.170;2022-07-29T06:02:10;2.00;;;1.40;;
13408;SDS011;6775;49.574;11.170;2022-07-29T06:04:39;1.87;;;1.37;;
13408;SDS011;6775;49.574;11.170;2022-07-29T06:07:07;1.90;;;1.27;;
13408;SDS011;6775;49.574;11.170;2022-07-29T06:09:35;2.27;;;1.60;;
13408;SDS011;6775;49.574;11.170;2022-07-29T06:12:03;1.60;;;1.50;;
13408;SDS011;6775;49.574;11.170;2022-07-29T06:14:31;3.80;;;1.90;;
13408;SDS011;6775;49.574;11.170;2022-07-29T06:16:59;2.23;;;1.43;;
13408;SDS011;6775;49.574;11.170;2022-07-29T06:19:27;1.40;;;1.30;;
13408;SDS011;6775;49.574;11.170;2022-07-29T06:21:57;2.83;;;1.60;;
13408;SDS011;6775;49.574;11.170;2022-07-29T06:24:24;2.27;;;1.57;;
13408;SDS011;6775;49.574;11.170;2022-07-29T06:26:53;3.30;;;1.57;;
13408;SDS011;6775;49.574;11.170;2022-07-29T06:29:21;3.47;;;1.50;;
13408;SDS011;6775;49.574;11.170;2022-07-29T06:31:49;2.87;;;1.83;;
13408;SDS011;6775;49.574;11.170;2022-07-29T06:34:16;1.73;;;1.50;;
13408;SDS011;6775;49.574;11.170;2022-07-29T06:36:46;1.97;;;1.60;;
13408;SDS011;6775;49.574;11.170;2022-07-29T06:39:17;2.20;;;1.50;;
13408;SDS011;6775;49.574;11.170;2022-07-29T06:41:46;2.30;;;1.93;;
13408;SDS011;6775;49.574;11.170;2022-07-29T06:44:15;2.23;;;1.77;;
13408;SDS011;6775;49.574;11.170;2022-07-29T06:46:44;2.13;;;1.50;;
13408;SDS011;6775;49.574;11.170;2022-07-29T06:49:13;1.70;;;1.60;;
13408;SDS011;6775;49.574;11.170;2022-07-29T06:51:41;2.03;;;1.83;;
13408;SDS011;6775;49.574;11.170;2022-07-29T06:54:08;2.17;;;1.70;;
13408;SDS011;6775;49.574;11.170;2022-07-29T06:56:38;2.40;;;2.07;;
13408;SDS011;6775;49.574;11.170;2022-07-29T06:59:08;2.90;;;1.93;;
13408;SDS011;6775;49.574;11.170;2022-07-29T07:01:37;2.17;;;1.97;;
13408;SDS011;6775;49.574;11.170;2022-07-29T07:04:06;2.13;;;1.93;;
13408;SDS011;6775;49.574;11.170;2022-07-29T07:06:35;2.10;;;1.90;;
13408;SDS011;6775;49.574;11.170;2022-07-29T07:09:04;3.13;;;1.90;;
13408;SDS011;6775;49.574;11.170;2022-07-29T07:11:32;1.80;;;1.70;;
13408;SDS011;6775;49.574;11.170;2022-07-29T07:14:01;1.80;;;1.70;;
13408;SDS011;6775;49.574;11.170;2022-07-29T07:16:30;2.07;;;1.80;;
13408;SDS011;6775;49.574;11.170;2022-07-29T07:18:58;2.03;;;1.60;;
13408;SDS011;6775;49.574;11.170;2022-07-29T07:21:26;1.90;;;1.80;;
13408;SDS011;6775;49.574;11.170;2022-07-29T07:23:56;4.23;;;1.97;;
13408;SDS011;6775;49.574;11.170;2022-07-29T07:26:24;1.97;;;1.83;;
13408;SDS011;6775;49.574;11.170;2022-07-29T07:28:52;2.17;;;1.97;;
13408;SDS011;6775;49.574;11.170;2022-07-29T07:31:21;2.60;;;1.93;;
13408;SDS011;6775;49.574;11.170;2022-07-29T07:33:49;2.63;;;1.70;;
13408;SDS011;6775;49.574;11.170;2022-07-29T07:36:17;2.07;;;1.87;;
13408;SDS011;6775;49.574;11.170;2022-07-29T07:38:45;3.93;;;1.93;;
13408;SDS011;6775;49.574;11.170;2022-07-29T07:41:13;2.00;;;1.90;;
13408;SDS011;6775;49.574;11.170;2022-07-29T07:43:41;2.70;;;2.10;;
13408;SDS011;6775;49.574;11.170;2022-07-29T07:46:09;2.10;;;1.90;;
13408;SDS011;6775;49.574;11.170;2022-07-29T07:48:38;2.53;;;1.80;;
13408;SDS011;6775;49.574;11.170;2022-07-29T07:51:06;1.97;;;1.87;;
13408;SDS011;6775;49.574;11.170;2022-07-29T07:53:34;4.00;;;2.10;;
13408;SDS011;6775;49.574;11.170;2022-07-29T07:56:02;1.83;;;1.73;;
13408;SDS011;6775;49.574;11.170;2022-07-29T07:58:38;2.67;;;1.90;;
13408;SDS011;6775;49.574;11.170;2022-07-29T08:01:06;1.70;;;1.60;;
13408;SDS011;6775;49.574;11.170;2022-07-29T08:03:34;1.77;;;1.60;;
13408;SDS011;6775;49.574;11.170;2022-07-29T08:06:04;2.93;;;1.70;;
13408;SDS011;6775;49.574;11.170;2022-07-29T08:08:32;2.03;;;1.83;;
13408;SDS011;6775;49.574;11.170;2022-07-29T08:11:00;1.90;;;1.70;;
13408;SDS011;6775;49.574;11.170;2022-07-29T08:13:35;2.17;;;1.97;;
13408;SDS011;6775;49.574;11.170;2022-07-29T08:16:05;1.87;;;1.77;;
13408;SDS011;6775;49.574;11.170;2022-07-29T08:18:40;1.63;;;1.53;;
13408;SDS011;6775;49.574;11.170;2022-07-29T08:21:10;2.00;;;1.90;;
13408;SDS011;6775;49.574;11.170;2022-07-29T08:23:40;3.00;;;2.10;;
13408;SDS011;6775;49.574;11.170;2022-07-29T08:26:23;2.10;;;1.90;;
13408;SDS011;6775;49.574;11.170;2022-07-29T08:28:50;2.50;;;1.93;;
13408;SDS011;6775;49.574;11.170;2022-07-29T08:31:18;1.87;;;1.63;;
13408;SDS011;6775;49.574;11.170;2022-07-29T08:33:46;3.03;;;1.80;;
13408;SDS011;6775;49.574;11.170;2022-07-29T08:36:15;3.20;;;2.30;;
13408;SDS011;6775;49.574;11.170;2022-07-29T08:38:43;2.27;;;2.07;;
13408;SDS011;6775;49.574;11.170;2022-07-29T08:41:11;6.07;;;2.47;;
13408;SDS011;6775;49.574;11.170;2022-07-29T08:43:39;3.33;;;2.40;;
13408;SDS011;6775;49.574;11.170;2022-07-29T08:46:07;3.00;;;2.40;;
13408;SDS011;6775;49.574;11.170;2022-07-29T08:48:35;2.73;;;2.43;;
13408;SDS011;6775;49.574;11.170;2022-07-29T08:51:04;3.43;;;2.53;;
13408;SDS011;6775;49.574;11.170;2022-07-29T08:53:37;3.90;;;2.20;;
13408;SDS011;6775;49.574;11.170;2022-07-29T08:56:07;2.37;;;2.17;;
13408;SDS011;6775;49.574;11.170;2022-07-29T08:58:38;2.50;;;2.30;;
13408;SDS011;6775;49.574;11.170;2022-07-29T09:01:09;2.83;;;2.63;;
13408;SDS011;6775;49.574;11.170;2022-07-29T09:03:40;2.97;;;2.40;;
13408;SDS011;6775;49.574;11.170;2022-07-29T09:06:08;2.63;;;2.40;;
13408;SDS011;6775;49.574;11.170;2022-07-29T09:08:41;2.70;;;2.50;;
13408;SDS011;6775;49.574;11.170;2022-07-29T09:11:09;2.63;;;2.43;;
13408;SDS011;6775;49.574;11.170;2022-07-29T09:13:37;3.00;;;2.80;;
13408;SDS011;6775;49.574;11.170;2022-07-29T09:16:05;3.40;;;3.10;;
13408;SDS011;6775;49.574;11.170;2022-07-29T09:18:35;2.83;;;2.63;;
13408;SDS011;6775;49.574;11.170;2022-07-29T09:21:04;3.50;;;3.00;;
13408;SDS011;6775;49.574;11.170;2022-07-29T09:24:05;3.03;;;2.80;;
13408;SDS011;6775;49.574;11.170;2022-07-29T09:26:34;3.00;;;2.80;;
13408;SDS011;6775;49.574;11.170;2022-07-29T09:29:10;2.77;;;2.57;;
13408;SDS011;6775;49.574;11.170;2022-07-29T09:31:41;3.20;;;3.00;;
13408;SDS011;6775;49.574;11.170;2022-07-29T09:34:10;2.83;;;2.53;;
13408;SDS011;6775;49.574;11.170;2022-07-29T09:36:41;3.03;;;2.80;;
13408;SDS011;6775;49.574;11.170;2022-07-29T09:39:12;3.10;;;2.80;;
13408;SDS011;6775;49.574;11.170;2022-07-29T09:41:43;3.07;;;2.83;;
13408;SDS011;6775;49.574;11.170;2022-07-29T09:44:12;4.37;;;3.20;;
13408;SDS011;6775;49.574;11.170;2022-07-29T09:46:41;4.07;;;3.10;;
13408;SDS011;6775;49.574;11.170;2022-07-29T09:49:24;3.57;;;3.00;;
13408;SDS011;6775;49.574;11.170;2022-07-29T09:51:59;3.13;;;2.83;;
13408;SDS011;6775;49.574;11.170;2022-07-29T09:54:32;3.37;;;3.17;;
13408;SDS011;6775;49.574;11.170;2022-07-29T09:57:04;4.00;;;3.27;;
13408;SDS011;6775;49.574;11.170;2022-07-29T09:59:33;3.80;;;3.43;;
13408;SDS011;6775;49.574;11.170;2022-07-29T10:02:01;3.50;;;3.20;;
13408;SDS011;6775;49.574;11.170;2022-07-29T10:04:38;3.93;;;3.40;;
13408;SDS011;6775;49.574;11.170;2022-07-29T10:07:06;4.03;;;3.33;;
13408;SDS011;6775;49.574;11.170;2022-07-29T10:09:36;6.20;;;3.77;;
13408;SDS011;6775;49.574;11.170;2022-07-29T10:12:05;3.57;;;3.27;;
13408;SDS011;6775;49.574;11.170;2022-07-29T10:14:35;3.80;;;3.50;;
13408;SDS011;6775;49.574;11.170;2022-07-29T10:17:04;4.30;;;3.90;;
13408;SDS011;6775;49.574;11.170;2022-07-29T10:19:33;3.80;;;3.50;;
13408;SDS011;6775;49.574;11.170;2022-07-29T10:22:04;5.57;;;3.80;;
13408;SDS011;6775;49.574;11.170;2022-07-29T10:24:32;5.40;;;3.70;;
13408;SDS011;6775;49.574;11.170;2022-07-29T10:27:03;3.97;;;3.67;;
13408;SDS011;6775;49.574;11.170;2022-07-29T10:29:32;3.90;;;3.60;;
13408;SDS011;6775;49.574;11.170;2022-07-29T10:32:06;5.40;;;3.70;;
13408;SDS011;6775;49.574;11.170;2022-07-29T10:35:12;4.53;;;4.10;;
13408;SDS011;6775;49.574;11.170;2022-07-29T10:38:04;4.30;;;3.90;;
13408;SDS011;6775;49.574;11.170;2022-07-29T10:40:46;3.93;;;3.63;;
13408;SDS011;6775;49.574;11.170;2022-07-29T10:43:46;4.20;;;3.80;;
13408;SDS011;6775;49.574;11.170;2022-07-29T10:46:35;4.20;;;3.90;;
13408;SDS011;6775;49.574;11.170;2022-07-29T10:49:10;4.27;;;3.83;;
13408;SDS011;6775;49.574;11.170;2022-07-29T10:52:00;4.07;;;3.67;;
13408;SDS011;6775;49.574;11.170;2022-07-29T10:54:41;3.93;;;3.63;;
13408;SDS011;6775;49.574;11.170;2022-07-29T10:57:18;3.90;;;3.60;;
13408;SDS011;6775;49.574;11.170;2022-07-29T11:02:59;3.70;;;3.40;;
13408;SDS011;6775;49.574;11.170;2022-07-29T11:05:51;4.20;;;3.80;;
13408;SDS011;6775;49.574;11.170;2022-07-29T11:08:21;3.90;;;3.60;;
13408;SDS011;6775;49.574;11.170;2022-07-29T11:14:00;3.67;;;3.47;;
13408;SDS011;6775;49.574;11.170;2022-07-29T11:19:31;3.87;;;3.57;;
13408;SDS011;6775;49.574;11.170;2022-07-29T11:22:01;5.00;;;3.70;;
13408;SDS011;6775;49.574;11.170;2022-07-29T11:24:30;4.07;;;3.47;;
13408;SDS011;6775;49.574;11.170;2022-07-29T11:27:07;4.20;;;3.70;;
13408;SDS011;6775;49.574;11.170;2022-07-29T11:29:38;4.57;;;4.13;;
13408;SDS011;6775;49.574;11.170;2022-07-29T11:32:10;4.70;;;4.30;;
13408;SDS011;6775;49.574;11.170;2022-07-29T11:34:48;4.13;;;3.83;;
13408;SDS011;6775;49.574;11.170;2022-07-29T11:37:43;4.10;;;3.80;;
13408;SDS011;6775;49.574;11.170;2022-07-29T11:40:32;3.93;;;3.63;;
13408;SDS011;6775;49.574;11.170;2022-07-29T11:43:01;3.87;;;3.57;;
13408;SDS011;6775;49.574;11.170;2022-07-29T11:45:44;3.80;;;3.40;;
13408;SDS011;6775;49.574;11.170;2022-07-29T11:48:18;3.90;;;3.50;;
13408;SDS011;6775;49.574;11.170;2022-07-29T11:50:57;4.57;;;4.17;;
13408;SDS011;6775;49.574;11.170;2022-07-29T11:53:26;4.33;;;3.93;;
13408;SDS011;6775;49.574;11.170;2022-07-29T11:55:58;5.03;;;4.50;;
13408;SDS011;6775;49.574;11.170;2022-07-29T11:58:28;4.23;;;3.73;;
13408;SDS011;6775;49.574;11.170;2022-07-29T12:00:57;4.83;;;3.90;;
13408;SDS011;6775;49.574;11.170;2022-07-29T12:03:32;4.20;;;3.90;;
13408;SDS011;6775;49.574;11.170;2022-07-29T12:06:02;3.83;;;3.53;;
13408;SDS011;6775;49.574;11.170;2022-07-29T12:08:57;3.90;;;3.50;;
13408;SDS011;6775;49.574;11.170;2022-07-29T12:11:26;3.90;;;3.60;;
13408;SDS011;6775;49.574;11.170;2022-07-29T12:13:54;3.50;;;3.30;;
13408;SDS011;6775;49.574;11.170;2022-07-29T12:16:22;4.27;;;3.90;;
13408;SDS011;6775;49.574;11.170;2022-07-29T12:18:59;4.17;;;3.87;;
13408;SDS011;6775;49.574;11.170;2022-07-29T12:21:29;3.97;;;3.53;;
13408;SDS011;6775;49.574;11.170;2022-07-29T12:24:21;3.70;;;3.40;;
13408;SDS011;6775;49.574;11.170;2022-07-29T12:26:52;4.30;;;3.97;;
13408;SDS011;6775;49.574;11.170;2022-07-29T12:29:22;4.00;;;3.60;;
13408;SDS011;6775;49.574;11.170;2022-07-29T12:32:01;4.13;;;3.60;;
13408;SDS011;6775;49.574;11.170;2022-07-29T12:34:41;3.80;;;3.50;;
13408;SDS011;6775;49.574;11.170;2022-07-29T12:37:09;3.57;;;3.27;;
13408;SDS011;6775;49.574;11.170;2022-07-29T12:39:37;3.57;;;3.27;;
13408;SDS011;6775;49.574;11.170;2022-07-29T12:42:10;4.03;;;3.67;;
13408;SDS011;6775;49.574;11.170;2022-07-29T12:44:43;3.93;;;3.63;;
13408;SDS011;6775;49.574;11.170;2022-07-29T12:47:12;4.30;;;3.90;;
13408;SDS011;6775;49.574;11.170;2022-07-29T12:49:41;4.10;;;3.80;;
13408;SDS011;6775;49.574;11.170;2022-07-29T12:52:25;3.73;;;3.43;;
13408;SDS011;6775;49.574;11.170;2022-07-29T12:54:54;4.27;;;3.87;;
13408;SDS011;6775;49.574;11.170;2022-07-29T12:57:22;4.07;;;3.77;;
13408;SDS011;6775;49.574;11.170;2022-07-29T13:00:04;4.57;;;4.17;;
13408;SDS011;6775;49.574;11.170;2022-07-29T13:02:36;4.30;;;4.00;;
13408;SDS011;6775;49.574;11.170;2022-07-29T13:05:07;4.27;;;3.97;;
13408;SDS011;6775;49.574;11.170;2022-07-29T13:07:36;3.87;;;3.57;;
13408;SDS011;6775;49.574;11.170;2022-07-29T13:10:21;4.07;;;3.67;;
13408;SDS011;6775;49.574;11.170;2022-07-29T13:13:05;3.57;;;3.27;;
13408;SDS011;6775;49.574;11.170;2022-07-29T13:15:35;3.87;;;3.57;;
13408;SDS011;6775;49.574;11.170;2022-07-29T13:18:04;3.60;;;3.30;;
13408;SDS011;6775;49.574;11.170;2022-07-29T13:20:54;3.30;;;3.00;;
13408;SDS011;6775;49.574;11.170;2022-07-29T13:23:22;3.90;;;3.60;;
13408;SDS011;6775;49.574;11.170;2022-07-29T13:25:50;4.03;;;3.63;;
13408;SDS011;6775;49.574;11.170;2022-07-29T13:28:19;4.43;;;4.03;;
13408;SDS011;6775;49.574;11.170;2022-07-29T13:30:47;5.97;;;3.60;;
13408;SDS011;6775;49.574;11.170;2022-07-29T13:33:15;3.53;;;3.33;;
13408;SDS011;6775;49.574;11.170;2022-07-29T13:35:43;3.50;;;3.27;;
13408;SDS011;6775;49.574;11.170;2022-07-29T13:38:12;3.40;;;3.20;;
13408;SDS011;6775;49.574;11.170;2022-07-29T13:40:40;3.63;;;3.33;;
13408;SDS011;6775;49.574;11.170;2022-07-29T13:43:08;3.90;;;3.60;;
13408;SDS011;6775;49.574;11.170;2022-07-29T13:45:36;4.20;;;3.07;;
13408;SDS011;6775;49.574;11.170;2022-07-29T13:48:05;3.00;;;2.70;;
13408;SDS011;6775;49.574;11.170;2022-07-29T13:50:33;3.00;;;2.80;;
13408;SDS011;6775;49.574;11.170;2022-07-29T13:53:01;3.23;;;2.40;;
13408;SDS011;6775;49.574;11.170;2022-07-29T13:55:30;1.67;;;1.57;;
13408;SDS011;6775;49.574;11.170;2022-07-29T13:57:58;6.17;;;2.10;;
13408;SDS011;6775;49.574;11.170;2022-07-29T14:00:29;2.53;;;2.00;;
13408;SDS011;6775;49.574;11.170;2022-07-29T14:02:57;2.63;;;2.07;;
13408;SDS011;6775;49.574;11.170;2022-07-29T14:05:25;2.23;;;2.03;;
13408;SDS011;6775;49.574;11.170;2022-07-29T14:07:53;4.17;;;2.20;;
13408;SDS011;6775;49.574;11.170;2022-07-29T14:10:21;2.53;;;2.20;;
13408;SDS011;6775;49.574;11.170;2022-07-29T14:12:50;3.67;;;2.33;;
13408;SDS011;6775;49.574;11.170;2022-07-29T14:15:18;2.57;;;2.37;;
13408;SDS011;6775;49.574;11.170;2022-07-29T14:17:46;3.30;;;2.40;;
13408;SDS011;6775;49.574;11.170;2022-07-29T14:20:14;4.87;;;2.70;;
13408;SDS011;6775;49.574;11.170;2022-07-29T14:22:42;5.60;;;3.10;;
13408;SDS011;6775;49.574;11.170;2022-07-29T14:25:11;3.93;;;3.07;;
13408;SDS011;6775;49.574;11.170;2022-07-29T14:27:41;3.90;;;3.10;;
13408;SDS011;6775;49.574;11.170;2022-07-29T14:30:11;3.27;;;2.70;;
13408;SDS011;6775;49.574;11.170;2022-07-29T14:32:39;6.40;;;3.27;;
13408;SDS011;6775;49.574;11.170;2022-07-29T14:35:07;4.43;;;2.90;;
13408;SDS011;6775;49.574;11.170;2022-07-29T14:37:35;4.37;;;2.93;;
13408;SDS011;6775;49.574;11.170;2022-07-29T14:40:06;3.80;;;3.37;;
13408;SDS011;6775;49.574;11.170;2022-07-29T14:42:35;3.93;;;3.37;;
13408;SDS011;6775;49.574;11.170;2022-07-29T14:45:03;3.17;;;2.93;;
13408;SDS011;6775;49.574;11.170;2022-07-29T14:47:34;4.00;;;3.00;;
13408;SDS011;6775;49.574;11.170;2022-07-29T14:50:03;3.60;;;3.20;;
13408;SDS011;6775;49.574;11.170;2022-07-29T14:52:32;4.27;;;3.10;;
13408;SDS011;6775;49.574;11.170;2022-07-29T14:54:59;3.37;;;3.03;;
13408;SDS011;6775;49.574;11.170;2022-07-29T14:57:27;3.73;;;3.00;;
13408;SDS011;6775;49.574;11.170;2022-07-29T14:59:55;3.43;;;3.13;;
13408;SDS011;6775;49.574;11.170;2022-07-29T15:02:23;3.07;;;2.77;;
13408;SDS011;6775;49.574;11.170;2022-07-29T15:05:12;3.00;;;2.70;;
13408;SDS011;6775;49.574;11.170;2022-07-29T15:07:40;2.73;;;2.53;;
13408;SDS011;6775;49.574;11.170;2022-07-29T15:10:08;2.80;;;2.60;;
13408;SDS011;6775;49.574;11.170;2022-07-29T15:12:39;2.73;;;2.53;;
13408;SDS011;6775;49.574;11.170;2022-07-29T15:15:08;3.07;;;2.47;;
13408;SDS011;6775;49.574;11.170;2022-07-29T15:17:36;3.40;;;2.70;;
13408;SDS011;6775;49.574;11.170;2022-07-29T15:20:04;2.60;;;2.40;;
13408;SDS011;6775;49.574;11.170;2022-07-29T15:22:34;2.80;;;2.60;;
13408;SDS011;6775;49.574;11.170;2022-07-29T15:25:03;2.83;;;2.53;;
13408;SDS011;6775;49.574;11.170;2022-07-29T15:27:31;2.80;;;2.50;;